Alma, West Virginia
Current Conditions -  °F | °C
As of 4:53 PM on Monday 20 Oct 2014 (Local Time) from KPKB Reporting Station
Overcast Overcast  
Wind Chill: 14°   Ceiling: 11000
Heat Index: 14°   Visibility: 10mi
Dew Point:   Wind: 8mph
Humidity: 58%   Direction: 210°SSW
Pressure: 29.93"   Gusts: 18mph
Location:  39.43°N, 80.84°W
Report Text: KPKB 202053Z 21007G16KT 10SM FEW055 OVC110 14/06 A2993 RMK AO2 SLP136 T01440061 56014
Loading
Personal Weather Stations






























Interactive Weather Map
Tropical Storm Tracking
New forecast layout! Learn more

10-Day Weather Forecast

Advertisements
Track Severe Weather on mobile